createdAt,value
2018-04-11T00:00:21.862Z,1001.07
2018-04-11T00:02:23.283Z,1001.02
2018-04-11T00:04:24.763Z,1001.00
2018-04-11T00:06:26.230Z,1000.98
2018-04-11T00:08:27.694Z,1000.92
2018-04-11T00:10:29.127Z,1000.91
2018-04-11T00:12:30.564Z,1000.96
2018-04-11T00:14:32.014Z,1001.02
2018-04-11T00:16:33.608Z,1000.97
2018-04-11T00:18:35.031Z,1000.96
2018-04-11T00:20:36.456Z,1001.00
2018-04-11T00:22:37.897Z,1001.02
2018-04-11T00:24:39.329Z,1001.03
2018-04-11T00:26:40.757Z,1001.05
2018-04-11T00:28:42.187Z,1001.06
2018-04-11T00:30:43.606Z,1001.03
2018-04-11T00:32:45.097Z,1001.05
2018-04-11T00:34:46.498Z,1001.05
2018-04-11T00:36:47.917Z,1001.07
2018-04-11T00:38:49.343Z,1001.15
2018-04-11T00:40:50.763Z,1001.09
2018-04-11T00:42:52.177Z,1001.07
2018-04-11T00:44:53.601Z,1001.06
2018-04-11T00:46:55.025Z,1001.07
2018-04-11T00:48:56.457Z,1001.00
2018-04-11T00:50:57.875Z,1001.08
2018-04-11T00:52:59.296Z,1001.13
2018-04-11T00:55:00.718Z,1001.12
2018-04-11T00:57:02.140Z,1001.13
2018-04-11T00:59:03.561Z,1001.16
2018-04-11T01:01:04.984Z,1001.19
2018-04-11T01:03:06.405Z,1001.17
2018-04-11T01:05:07.830Z,1001.17
2018-04-11T01:07:09.258Z,1001.17
2018-04-11T01:09:10.676Z,1001.17
2018-04-11T01:11:12.095Z,1001.20
2018-04-11T01:13:13.515Z,1001.17
2018-04-11T01:15:15.027Z,1001.11
2018-04-11T01:17:16.519Z,1001.10
2018-04-11T01:19:17.976Z,1001.13
2018-04-11T01:21:19.465Z,1001.18
2018-04-11T01:23:20.962Z,1001.18
2018-04-11T01:25:22.438Z,1001.20
2018-04-11T01:27:23.859Z,1001.23
2018-04-11T01:29:25.296Z,1001.29
2018-04-11T01:31:26.804Z,1001.36
2018-04-11T01:33:28.255Z,1001.31
2018-04-11T01:35:29.669Z,1001.34
2018-04-11T01:37:31.164Z,1001.26
2018-04-11T01:39:32.613Z,1001.30
2018-04-11T01:41:34.030Z,1001.27
2018-04-11T01:43:35.451Z,1001.29
2018-04-11T01:45:36.911Z,1001.25
2018-04-11T01:47:38.805Z,1001.20
2018-04-11T01:49:42.131Z,1001.16
2018-04-11T01:51:43.591Z,1001.18
2018-04-11T01:53:45.114Z,1001.16
2018-04-11T01:55:46.565Z,1001.19
2018-04-11T01:57:47.996Z,1001.25
2018-04-11T01:59:49.439Z,1001.24
2018-04-11T02:01:50.955Z,1001.34
2018-04-11T02:03:52.468Z,1001.31
2018-04-11T02:05:53.976Z,1001.29
2018-04-11T02:07:55.415Z,1001.29
2018-04-11T02:09:56.847Z,1001.33
2018-04-11T02:11:58.320Z,1001.35
2018-04-11T02:13:59.833Z,1001.25
2018-04-11T02:16:01.254Z,1001.14
2018-04-11T02:18:02.675Z,1001.20
2018-04-11T02:20:04.093Z,1001.16
2018-04-11T02:22:05.517Z,1001.17
2018-04-11T02:24:06.941Z,1001.16
2018-04-11T02:26:08.357Z,1001.07
2018-04-11T02:28:09.784Z,1001.07
2018-04-11T02:30:11.563Z,1001.20
2018-04-11T02:32:13.125Z,1001.27
2018-04-11T02:34:14.613Z,1001.28
2018-04-11T02:36:16.144Z,1001.42
2018-04-11T02:38:17.726Z,1001.48
2018-04-11T02:40:19.411Z,1001.45
2018-04-11T02:42:21.652Z,1001.43
2018-04-11T02:44:23.940Z,1001.44
2018-04-11T02:46:25.619Z,1001.36
2018-04-11T02:48:27.145Z,1001.34
2018-04-11T02:50:28.572Z,1001.39
2018-04-11T02:52:29.999Z,1001.41
2018-04-11T02:54:31.489Z,1001.41
2018-04-11T02:56:33.462Z,1001.44
2018-04-11T02:58:35.824Z,1001.47
2018-04-11T03:00:37.519Z,1001.51
2018-04-11T03:02:38.950Z,1001.51
2018-04-11T03:04:40.386Z,1001.54
2018-04-11T03:06:41.892Z,1001.56
2018-04-11T03:08:43.359Z,1001.53
2018-04-11T03:10:44.832Z,1001.56
2018-04-11T03:12:46.308Z,1001.58
2018-04-11T03:14:47.757Z,1001.64
2018-04-11T03:16:49.987Z,1001.59
2018-04-11T03:18:51.512Z,1001.65
2018-04-11T03:20:53.046Z,1001.63
2018-04-11T03:22:54.499Z,1001.59
2018-04-11T03:24:55.930Z,1001.60
2018-04-11T03:26:57.509Z,1001.59
2018-04-11T03:28:58.998Z,1001.57
2018-04-11T03:31:00.498Z,1001.62
2018-04-11T03:33:02.005Z,1001.63
2018-04-11T03:35:03.480Z,1001.58
2018-04-11T03:37:04.937Z,1001.58
2018-04-11T03:39:06.425Z,1001.56
2018-04-11T03:41:07.880Z,1001.52
2018-04-11T03:43:09.337Z,1001.54
2018-04-11T03:45:10.781Z,1001.51
2018-04-11T03:47:12.335Z,1001.54
2018-04-11T03:49:13.770Z,1001.58
2018-04-11T03:51:15.211Z,1001.52
2018-04-11T03:53:16.669Z,1001.43
2018-04-11T03:55:18.126Z,1001.47
2018-04-11T03:57:19.559Z,1001.56
2018-04-11T03:59:21.064Z,1001.55
2018-04-11T04:01:22.533Z,1001.56
2018-04-11T04:03:24.045Z,1001.62
2018-04-11T04:05:25.499Z,1001.64
2018-04-11T04:07:26.988Z,1001.66
2018-04-11T04:09:28.442Z,1001.72
2018-04-11T04:11:29.867Z,1001.73
2018-04-11T04:13:31.311Z,1001.74
2018-04-11T04:15:32.792Z,1001.78
2018-04-11T04:17:34.267Z,1001.86
2018-04-11T04:19:35.744Z,1001.91
2018-04-11T04:21:37.193Z,1001.94
2018-04-11T04:23:38.646Z,1001.93
2018-04-11T04:25:40.097Z,1001.93
2018-04-11T04:27:41.530Z,1001.91
2018-04-11T04:29:42.957Z,1001.96
2018-04-11T04:31:44.377Z,1001.95
2018-04-11T04:33:45.873Z,1002.03
2018-04-11T04:35:47.295Z,1002.01
2018-04-11T04:38:29.222Z,1002.16
2018-04-11T04:40:30.655Z,1002.18
2018-04-11T04:42:32.203Z,1002.09
2018-04-11T04:44:33.787Z,1002.13
2018-04-11T04:46:35.216Z,1002.11
2018-04-11T04:48:36.664Z,1002.14
2018-04-11T04:50:38.160Z,1002.14
2018-04-11T04:52:39.685Z,1002.20
2018-04-11T04:54:41.156Z,1002.23
2018-04-11T04:56:42.582Z,1002.24
2018-04-11T04:58:44.001Z,1002.25
2018-04-11T05:00:45.417Z,1002.32
2018-04-11T05:02:46.840Z,1002.26
2018-04-11T05:04:48.264Z,1002.22
2018-04-11T05:06:49.686Z,1002.21
2018-04-11T05:08:51.113Z,1002.25
2018-04-11T05:10:52.532Z,1002.30
2018-04-11T05:12:53.945Z,1002.24
2018-04-11T05:14:55.368Z,1002.16
2018-04-11T05:16:56.809Z,1002.19
2018-04-11T05:18:58.229Z,1002.18
2018-04-11T05:20:59.651Z,1002.15
2018-04-11T05:23:01.069Z,1002.10
2018-04-11T05:25:02.487Z,1002.17
2018-04-11T05:27:03.906Z,1002.22
2018-04-11T05:29:05.326Z,1002.23
2018-04-11T05:31:06.796Z,1002.24
2018-04-11T05:33:08.209Z,1002.32
2018-04-11T05:35:09.638Z,1002.42
2018-04-11T05:37:11.059Z,1002.51
2018-04-11T05:39:12.483Z,1002.62
2018-04-11T05:41:13.908Z,1002.67
2018-04-11T05:43:15.326Z,1002.71
2018-04-11T05:45:16.763Z,1002.73
2018-04-11T05:47:18.187Z,1002.72
2018-04-11T05:49:19.604Z,1002.64
2018-04-11T05:51:21.030Z,1002.55
2018-04-11T05:53:22.486Z,1002.68
2018-04-11T05:55:23.872Z,1002.77
2018-04-11T05:57:25.294Z,1002.74
2018-04-11T05:59:26.726Z,1002.78
2018-04-11T06:01:28.181Z,1002.80
2018-04-11T06:03:29.592Z,1002.90
2018-04-11T06:05:31.013Z,1002.90
2018-04-11T06:07:32.433Z,1003.03
2018-04-11T06:09:33.860Z,1003.06
2018-04-11T06:11:35.293Z,1003.05
2018-04-11T06:13:36.712Z,1003.03
2018-04-11T06:15:38.133Z,1003.03
2018-04-11T06:17:39.583Z,1003.10
2018-04-11T06:19:41.007Z,1003.12
2018-04-11T06:21:42.432Z,1003.09
2018-04-11T06:23:43.852Z,1003.02
2018-04-11T06:25:45.280Z,1002.93
2018-04-11T06:27:46.702Z,1002.93
2018-04-11T06:29:48.132Z,1002.97
2018-04-11T06:31:49.573Z,1002.97
2018-04-11T06:33:50.997Z,1003.03
2018-04-11T06:35:52.420Z,1002.94
2018-04-11T06:37:53.843Z,1002.88
2018-04-11T06:39:55.343Z,1002.83
2018-04-11T06:41:56.770Z,1002.91
2018-04-11T06:43:58.197Z,1002.93
2018-04-11T06:45:59.621Z,1002.97
2018-04-11T06:48:01.046Z,1003.06
2018-04-11T06:50:02.471Z,1003.02
2018-04-11T06:52:03.892Z,1003.02
2018-04-11T06:54:05.324Z,1003.13
2018-04-11T06:56:06.751Z,1003.04
2018-04-11T06:58:08.269Z,1003.05
2018-04-11T07:00:09.700Z,1003.16
2018-04-11T07:02:11.126Z,1003.13
2018-04-11T07:04:12.557Z,1003.27
2018-04-11T07:06:13.987Z,1003.27
2018-04-11T07:08:15.419Z,1003.25
2018-04-11T07:10:16.865Z,1003.21
2018-04-11T07:12:18.296Z,1003.11
2018-04-11T07:14:19.729Z,1003.01
2018-04-11T07:16:21.158Z,1003.01
2018-04-11T07:18:22.590Z,1003.02
2018-04-11T07:20:24.021Z,1003.12
2018-04-11T07:22:25.457Z,1003.11
2018-04-11T07:24:26.885Z,1003.11
2018-04-11T07:26:28.317Z,1003.09
2018-04-11T07:28:29.748Z,1002.99
2018-04-11T07:30:31.190Z,1003.09
2018-04-11T07:32:32.618Z,1003.24
2018-04-11T07:34:34.057Z,1003.22
2018-04-11T07:36:35.489Z,1003.22
2018-04-11T07:38:36.920Z,1003.20
2018-04-11T07:40:38.351Z,1003.20
2018-04-11T07:42:39.792Z,1003.28
2018-04-11T07:44:41.226Z,1003.30
2018-04-11T07:46:42.657Z,1003.41
2018-04-11T07:48:44.108Z,1003.46
2018-04-11T07:50:45.528Z,1003.40
2018-04-11T07:52:46.958Z,1003.38
2018-04-11T07:54:48.414Z,1003.41
2018-04-11T07:56:50.084Z,1003.44
2018-04-11T07:58:51.516Z,1003.44
2018-04-11T08:00:52.950Z,1003.49
2018-04-11T08:02:54.383Z,1003.53
2018-04-11T08:04:55.812Z,1003.55
2018-04-11T08:06:57.263Z,1003.52
2018-04-11T08:08:58.673Z,1003.50
2018-04-11T08:11:00.105Z,1003.48
2018-04-11T08:13:01.540Z,1003.42
2018-04-11T08:15:02.974Z,1003.39
2018-04-11T08:17:04.403Z,1003.41
2018-04-11T08:19:05.829Z,1003.39
2018-04-11T08:21:07.266Z,1003.41
2018-04-11T08:23:08.696Z,1003.43
2018-04-11T08:25:10.126Z,1003.44
2018-04-11T08:27:11.566Z,1003.51
2018-04-11T08:29:12.986Z,1003.47
2018-04-11T08:31:14.444Z,1003.45
2018-04-11T08:33:15.926Z,1003.43
2018-04-11T08:35:17.443Z,1003.42
2018-04-11T08:37:18.878Z,1003.49
2018-04-11T08:39:20.311Z,1003.46
2018-04-11T08:41:21.736Z,1003.49
2018-04-11T08:43:23.172Z,1003.47
2018-04-11T08:45:24.599Z,1003.48
2018-04-11T08:47:26.081Z,1003.49
2018-04-11T08:49:27.463Z,1003.52
2018-04-11T08:51:28.896Z,1003.56
2018-04-11T08:53:30.323Z,1003.46
2018-04-11T08:55:31.754Z,1003.47
2018-04-11T08:57:33.195Z,1003.46
2018-04-11T08:59:34.627Z,1003.50
2018-04-11T09:01:36.066Z,1003.53
2018-04-11T09:03:37.498Z,1003.53
2018-04-11T09:05:38.932Z,1003.48
2018-04-11T09:07:40.373Z,1003.46
2018-04-11T09:09:41.795Z,1003.39
2018-04-11T09:11:43.229Z,1003.38
2018-04-11T09:13:44.658Z,1003.42
2018-04-11T09:15:46.093Z,1003.37
2018-04-11T09:17:47.532Z,1003.32
2018-04-11T09:19:48.966Z,1003.36
2018-04-11T09:21:50.400Z,1003.33
2018-04-11T09:23:51.831Z,1003.37
2018-04-11T09:25:53.265Z,1003.29
2018-04-11T09:27:54.700Z,1003.30
2018-04-11T09:29:56.138Z,1003.25
2018-04-11T09:31:57.632Z,1003.28
2018-04-11T09:33:59.007Z,1003.24
2018-04-11T09:36:00.439Z,1003.24
2018-04-11T09:38:01.876Z,1003.23
2018-04-11T09:40:03.303Z,1003.21
2018-04-11T09:42:04.731Z,1003.16
2018-04-11T09:44:06.113Z,1003.14
2018-04-11T09:46:07.547Z,1003.26
2018-04-11T09:48:08.994Z,1003.26
2018-04-11T09:50:10.426Z,1003.27
2018-04-11T09:52:11.951Z,1003.28
2018-04-11T09:54:13.456Z,1003.30
2018-04-11T09:56:15.193Z,1003.32
2018-04-11T09:58:16.669Z,1003.31
2018-04-11T10:00:18.157Z,1003.23
2018-04-11T10:02:19.669Z,1003.21
2018-04-11T10:04:21.168Z,1003.16
2018-04-11T10:06:22.613Z,1003.17
2018-04-11T10:08:24.069Z,1003.06
2018-04-11T10:10:25.514Z,1003.01
2018-04-11T10:12:26.948Z,1003.10
2018-04-11T10:14:28.393Z,1003.08
2018-04-11T10:16:29.833Z,1003.11
2018-04-11T10:18:31.268Z,1003.07
2018-04-11T10:20:32.705Z,1003.13
2018-04-11T10:22:34.140Z,1003.05
2018-04-11T10:24:35.574Z,1003.02
2018-04-11T10:26:37.007Z,1003.10
2018-04-11T10:28:38.446Z,1003.06
2018-04-11T10:30:39.876Z,1003.14
2018-04-11T10:32:41.312Z,1003.12
2018-04-11T10:34:42.748Z,1003.18
2018-04-11T10:36:44.182Z,1003.15
2018-04-11T10:39:26.726Z,1003.11
2018-04-11T10:41:28.134Z,1003.09
2018-04-11T10:43:29.568Z,1003.14
2018-04-11T10:45:31.000Z,1003.14
2018-04-11T10:47:32.432Z,1003.05
2018-04-11T10:49:33.864Z,1003.05
2018-04-11T10:51:35.300Z,1003.05
2018-04-11T10:53:36.732Z,1003.10
2018-04-11T10:55:38.164Z,1003.09
2018-04-11T10:57:39.596Z,1003.12
2018-04-11T10:59:41.028Z,1003.14
2018-04-11T11:01:42.459Z,1003.07
2018-04-11T11:03:43.896Z,1003.13
2018-04-11T11:05:45.334Z,1003.01
2018-04-11T11:07:47.014Z,1003.16
2018-04-11T11:09:49.052Z,1003.09
2018-04-11T11:11:51.124Z,1003.04
2018-04-11T11:13:52.685Z,1003.08
2018-04-11T11:15:54.138Z,1003.04
2018-04-11T11:17:55.571Z,1003.02
2018-04-11T11:19:57.504Z,1003.03
2018-04-11T11:21:58.952Z,1003.02
2018-04-11T11:24:00.398Z,1003.05
2018-04-11T11:26:01.836Z,1003.05
2018-04-11T11:28:03.268Z,1002.94
2018-04-11T11:30:04.697Z,1003.00
2018-04-11T11:32:06.128Z,1002.98
2018-04-11T11:34:07.569Z,1002.96
2018-04-11T11:36:09.001Z,1002.89
2018-04-11T11:38:10.431Z,1002.82
2018-04-11T11:40:12.437Z,1002.80
2018-04-11T11:42:14.034Z,1002.85
2018-04-11T11:44:15.533Z,1002.82
2018-04-11T11:46:16.963Z,1002.81
2018-04-11T11:48:18.516Z,1002.78
2018-04-11T11:50:20.167Z,1002.75
2018-04-11T11:52:21.666Z,1002.71
2018-04-11T11:54:23.153Z,1002.71
2018-04-11T11:56:24.592Z,1002.77
2018-04-11T11:58:26.032Z,1002.72
2018-04-11T12:00:27.468Z,1002.74
2018-04-11T12:02:28.904Z,1002.70
2018-04-11T12:04:30.343Z,1002.61
2018-04-11T12:06:31.908Z,1002.65
2018-04-11T12:08:33.317Z,1002.64
2018-04-11T12:10:34.757Z,1002.66
2018-04-11T12:12:36.189Z,1002.62
2018-04-11T12:14:37.624Z,1002.56
2018-04-11T12:16:39.065Z,1002.51
2018-04-11T12:18:40.492Z,1002.53
2018-04-11T12:20:41.943Z,1002.49
2018-04-11T12:22:43.368Z,1002.45
2018-04-11T12:24:44.805Z,1002.46
2018-04-11T12:26:46.244Z,1002.43
2018-04-11T12:28:47.678Z,1002.49
2018-04-11T12:30:49.115Z,1002.51
2018-04-11T12:32:50.557Z,1002.47
2018-04-11T12:34:52.040Z,1002.50
2018-04-11T12:36:53.515Z,1002.51
2018-04-11T12:38:55.028Z,1002.51
2018-04-11T12:40:56.459Z,1002.51
2018-04-11T12:42:57.893Z,1002.47
2018-04-11T12:44:59.404Z,1002.47
2018-04-11T12:47:01.603Z,1002.50
2018-04-11T12:49:03.002Z,1002.45
2018-04-11T12:51:04.433Z,1002.37
2018-04-11T12:53:05.968Z,1002.39
2018-04-11T12:55:07.400Z,1002.43
2018-04-11T12:57:08.826Z,1002.38
2018-04-11T12:59:10.261Z,1002.39
2018-04-11T13:01:11.947Z,1002.40
2018-04-11T13:03:13.583Z,1002.38
2018-04-11T13:05:15.090Z,1002.33
2018-04-11T13:07:16.619Z,1002.33
2018-04-11T13:09:18.089Z,1002.32
2018-04-11T13:11:19.563Z,1002.27
2018-04-11T13:13:21.004Z,1002.27
2018-04-11T13:15:22.442Z,1002.23
2018-04-11T13:17:23.875Z,1002.18
2018-04-11T13:19:25.337Z,1002.16
2018-04-11T13:21:26.758Z,1002.08
2018-04-11T13:23:28.234Z,1002.11
2018-04-11T13:25:29.654Z,1002.04
2018-04-11T13:27:31.276Z,1001.97
2018-04-11T13:29:33.049Z,1001.93
2018-04-11T13:31:34.530Z,1001.93
2018-04-11T13:33:35.995Z,1001.93
2018-04-11T13:35:37.430Z,1001.89
2018-04-11T13:37:39.032Z,1001.90
2018-04-11T13:39:40.722Z,1001.97
2018-04-11T13:41:42.517Z,1001.92
2018-04-11T13:43:43.994Z,1001.93
2018-04-11T13:45:45.474Z,1001.91
2018-04-11T13:47:47.080Z,1001.90
2018-04-11T13:49:48.770Z,1001.92
2018-04-11T13:51:50.279Z,1001.93
2018-04-11T13:53:51.746Z,1001.94
2018-04-11T13:55:53.209Z,1001.91
2018-04-11T13:57:54.724Z,1001.91
2018-04-11T13:59:56.222Z,1001.90
2018-04-11T14:01:57.955Z,1002.00
2018-04-11T14:03:59.440Z,1001.93
2018-04-11T14:06:00.923Z,1001.89
2018-04-11T14:08:02.693Z,1001.91
2018-04-11T14:10:04.205Z,1001.92
2018-04-11T14:12:05.637Z,1001.96
2018-04-11T14:14:07.065Z,1001.92
2018-04-11T14:16:08.495Z,1001.90
2018-04-11T14:18:10.354Z,1001.94
2018-04-11T14:20:12.243Z,1001.96
2018-04-11T14:22:13.704Z,1001.94
2018-04-11T14:24:15.136Z,1001.93
2018-04-11T14:26:16.568Z,1001.90
2018-04-11T14:28:18.313Z,1001.92
2018-04-11T14:30:19.944Z,1001.91
2018-04-11T14:32:21.645Z,1001.89
2018-04-11T14:34:23.401Z,1001.92
2018-04-11T14:36:25.163Z,1001.91
2018-04-11T14:38:26.919Z,1001.97
2018-04-11T14:40:28.436Z,1001.97
2018-04-11T14:42:29.898Z,1001.99
2018-04-11T14:44:31.620Z,1001.98
2018-04-11T14:46:33.278Z,1001.93
2018-04-11T14:48:35.312Z,1001.93
2018-04-11T14:50:37.433Z,1001.91
2018-04-11T14:52:38.978Z,1001.93
2018-04-11T14:54:40.439Z,1001.90
2018-04-11T14:56:41.933Z,1001.88
2018-04-11T14:58:43.402Z,1001.89
2018-04-11T15:00:44.842Z,1001.86
2018-04-11T15:02:47.172Z,1001.88
2018-04-11T15:04:48.551Z,1001.87
2018-04-11T15:06:50.032Z,1001.86
2018-04-11T15:08:51.419Z,1001.89
2018-04-11T15:10:53.777Z,1001.84
2018-04-11T15:12:55.235Z,1001.85
2018-04-11T15:14:56.725Z,1001.89
2018-04-11T15:16:58.980Z,1001.93
2018-04-11T15:19:01.183Z,1001.94
2018-04-11T15:21:02.669Z,1001.99
2018-04-11T15:23:04.142Z,1002.00
2018-04-11T15:25:05.670Z,1001.92
2018-04-11T15:27:07.100Z,1001.95
2018-04-11T15:29:08.598Z,1001.94
2018-04-11T15:31:10.031Z,1001.90
2018-04-11T15:33:13.509Z,1002.01
2018-04-11T15:35:14.960Z,1002.00
2018-04-11T15:37:16.451Z,1001.94
2018-04-11T15:39:17.985Z,1001.91
2018-04-11T15:41:19.437Z,1001.87
2018-04-11T15:43:20.882Z,1001.92
2018-04-11T15:45:23.038Z,1001.92
2018-04-11T15:47:25.084Z,1001.93
2018-04-11T15:49:27.324Z,1001.89
2018-04-11T15:51:28.832Z,1001.93
2018-04-11T15:53:30.271Z,1001.97
2018-04-11T15:55:31.701Z,1001.95
2018-04-11T15:57:33.131Z,1002.00
2018-04-11T15:59:34.563Z,1001.96
2018-04-11T16:01:35.999Z,1001.99
2018-04-11T16:03:37.417Z,1001.92
2018-04-11T16:05:39.561Z,1002.01
2018-04-11T16:07:41.021Z,1001.97
2018-04-11T16:09:42.451Z,1001.98
2018-04-11T16:11:43.884Z,1001.95
2018-04-11T16:13:48.801Z,1001.94
2018-04-11T16:15:51.032Z,1001.88
2018-04-11T16:17:53.225Z,1001.90
2018-04-11T16:19:54.886Z,1001.90
2018-04-11T16:21:56.830Z,1001.91
2018-04-11T16:23:58.446Z,1001.89
2018-04-11T16:25:59.911Z,1001.90
2018-04-11T16:28:01.347Z,1001.96
2018-04-11T16:30:03.258Z,1001.92
2018-04-11T16:32:05.445Z,1001.93
2018-04-11T16:34:07.744Z,1001.99
2018-04-11T16:36:09.314Z,1001.99
2018-04-11T16:38:51.732Z,1001.96
2018-04-11T16:40:53.165Z,1001.99
2018-04-11T16:42:54.638Z,1001.99
2018-04-11T16:44:56.072Z,1002.00
2018-04-11T16:46:58.391Z,1001.92
2018-04-11T16:48:59.796Z,1002.01
2018-04-11T16:51:01.952Z,1001.94
2018-04-11T16:53:03.561Z,1001.98
2018-04-11T16:55:05.010Z,1001.98
2018-04-11T16:57:06.458Z,1001.95
2018-04-11T16:59:07.897Z,1001.96
2018-04-11T17:01:09.386Z,1001.97
2018-04-11T17:03:11.710Z,1001.96
2018-04-11T17:05:13.200Z,1001.98
2018-04-11T17:07:14.691Z,1001.95
2018-04-11T17:09:16.133Z,1002.04
2018-04-11T17:11:18.260Z,1002.00
2018-04-11T17:13:19.689Z,1001.99
2018-04-11T17:15:21.806Z,1001.91
2018-04-11T17:17:23.860Z,1001.95
2018-04-11T17:19:25.302Z,1001.95
2018-04-11T17:21:26.808Z,1001.92
2018-04-11T17:23:28.245Z,1001.97
2018-04-11T17:25:30.403Z,1001.92
2018-04-11T17:27:31.782Z,1001.94
2018-04-11T17:29:33.223Z,1001.95
2018-04-11T17:31:34.650Z,1001.99
2018-04-11T17:33:36.089Z,1001.92
2018-04-11T17:35:37.503Z,1001.99
2018-04-11T17:37:38.938Z,1001.99
2018-04-11T17:39:40.358Z,1002.00
2018-04-11T17:41:42.400Z,1001.97
2018-04-11T17:43:43.820Z,1001.99
2018-04-11T17:45:45.246Z,1001.86
2018-04-11T17:47:46.672Z,1001.93
2018-04-11T17:49:48.648Z,1001.93
2018-04-11T17:51:50.568Z,1001.93
2018-04-11T17:53:52.616Z,1001.91
2018-04-11T17:55:54.065Z,1001.95
2018-04-11T17:57:56.149Z,1001.95
2018-04-11T17:59:57.671Z,1002.00
2018-04-11T18:01:59.116Z,1002.04
2018-04-11T18:04:01.416Z,1002.09
2018-04-11T18:06:03.375Z,1002.10
2018-04-11T18:08:04.918Z,1002.15
2018-04-11T18:10:06.388Z,1002.23
2018-04-11T18:12:07.848Z,1002.19
2018-04-11T18:14:09.325Z,1002.20
2018-04-11T18:16:11.343Z,1002.26
2018-04-11T18:18:12.851Z,1002.26
2018-04-11T18:20:14.902Z,1002.29
2018-04-11T18:22:16.408Z,1002.31
2018-04-11T18:24:17.883Z,1002.30
2018-04-11T18:26:19.343Z,1002.33
2018-04-11T18:28:20.776Z,1002.32
2018-04-11T18:30:22.244Z,1002.34
2018-04-11T18:32:23.716Z,1002.30
2018-04-11T18:34:25.933Z,1002.35
2018-04-11T18:36:27.603Z,1002.38
2018-04-11T18:38:29.073Z,1002.35
2018-04-11T18:40:31.168Z,1002.29
2018-04-11T18:42:32.770Z,1002.33
2018-04-11T18:44:34.383Z,1002.34
2018-04-11T18:46:36.282Z,1002.33
2018-04-11T18:48:37.896Z,1002.38
2018-04-11T18:50:39.583Z,1002.36
2018-04-11T18:52:41.321Z,1002.35
2018-04-11T18:54:43.137Z,1002.26
2018-04-11T18:56:44.887Z,1002.28
2018-04-11T18:58:46.755Z,1002.29
2018-04-11T19:00:48.550Z,1002.29
2018-04-11T19:02:50.056Z,1002.31
2018-04-11T19:04:51.525Z,1002.30
2018-04-11T19:06:53.331Z,1002.29
2018-04-11T19:08:55.093Z,1002.29
2018-04-11T19:10:56.799Z,1002.30
2018-04-11T19:12:58.597Z,1002.31
2018-04-11T19:15:00.085Z,1002.29
2018-04-11T19:17:01.624Z,1002.28
2018-04-11T19:19:03.259Z,1002.30
2018-04-11T19:21:04.797Z,1002.31
2018-04-11T19:23:06.385Z,1002.30
2018-04-11T19:25:07.855Z,1002.32
2018-04-11T19:27:09.516Z,1002.32
2018-04-11T19:29:11.067Z,1002.35
2018-04-11T19:31:12.736Z,1002.35
2018-04-11T19:33:14.791Z,1002.35
2018-04-11T19:35:16.959Z,1002.36
2018-04-11T19:37:18.626Z,1002.35
2018-04-11T19:39:20.378Z,1002.35
2018-04-11T19:41:22.046Z,1002.38
2018-04-11T19:43:23.797Z,1002.39
2018-04-11T19:45:25.525Z,1002.35
2018-04-11T19:47:27.270Z,1002.32
2018-04-11T19:49:29.440Z,1002.32
2018-04-11T19:51:31.019Z,1002.31
2018-04-11T19:53:32.525Z,1002.27
2018-04-11T19:55:34.306Z,1002.29
2018-04-11T19:57:35.884Z,1002.27
2018-04-11T19:59:37.790Z,1002.25
2018-04-11T20:01:39.247Z,1002.27
2018-04-11T20:03:40.718Z,1002.30
2018-04-11T20:05:42.370Z,1002.30
2018-04-11T20:07:43.863Z,1002.31
2018-04-11T20:09:45.455Z,1002.34
2018-04-11T20:11:48.882Z,1002.36
2018-04-11T20:13:50.713Z,1002.37
2018-04-11T20:15:52.470Z,1002.38
2018-04-11T20:17:54.420Z,1002.39
2018-04-11T20:19:56.154Z,1002.40
2018-04-11T20:21:58.431Z,1002.37
2018-04-11T20:24:00.675Z,1002.39
2018-04-11T20:26:02.286Z,1002.38
2018-04-11T20:28:03.974Z,1002.39
2018-04-11T20:30:05.452Z,1002.33
2018-04-11T20:32:07.137Z,1002.35
2018-04-11T20:34:08.861Z,1002.33
2018-04-11T20:36:10.951Z,1002.30
2018-04-11T20:38:12.618Z,1002.27
2018-04-11T20:40:14.397Z,1002.32
2018-04-11T20:42:16.061Z,1002.33
2018-04-11T20:44:18.579Z,1002.32
2018-04-11T20:46:20.192Z,1002.32
2018-04-11T20:48:21.661Z,1002.31
2018-04-11T20:50:23.590Z,1002.33
2018-04-11T20:52:25.820Z,1002.33
2018-04-11T20:54:27.394Z,1002.32
2018-04-11T20:56:29.034Z,1002.33
2018-04-11T20:58:31.142Z,1002.32
2018-04-11T21:00:32.621Z,1002.30
2018-04-11T21:02:34.095Z,1002.34
2018-04-11T21:04:35.582Z,1002.33
2018-04-11T21:06:37.144Z,1002.34
2018-04-11T21:08:38.626Z,1002.32
2018-04-11T21:10:40.108Z,1002.27
2018-04-11T21:12:41.581Z,1002.26
2018-04-11T21:14:43.146Z,1002.23
2018-04-11T21:16:45.269Z,1002.26
2018-04-11T21:18:46.898Z,1002.25
2018-04-11T21:20:48.627Z,1002.25
2018-04-11T21:22:50.241Z,1002.23
2018-04-11T21:24:51.709Z,1002.22
2018-04-11T21:26:53.239Z,1002.24
2018-04-11T21:28:54.727Z,1002.21
2018-04-11T21:30:56.189Z,1002.17
2018-04-11T21:32:57.668Z,1002.20
2018-04-11T21:34:59.556Z,1002.16
2018-04-11T21:37:01.684Z,1002.13
2018-04-11T21:39:03.120Z,1002.13
2018-04-11T21:41:04.604Z,1002.09
2018-04-11T21:43:06.350Z,1002.09
2018-04-11T21:45:07.984Z,1002.07
2018-04-11T21:47:09.573Z,1002.13
2018-04-11T21:49:11.074Z,1002.11
2018-04-11T21:51:12.594Z,1002.10
2018-04-11T21:53:14.152Z,1002.12
2018-04-11T21:55:15.766Z,1002.10
2018-04-11T21:57:17.518Z,1002.15
2018-04-11T21:59:19.800Z,1002.15
2018-04-11T22:01:22.167Z,1002.11
2018-04-11T22:03:23.825Z,1002.05
2018-04-11T22:05:26.051Z,1002.04
2018-04-11T22:07:28.271Z,1002.06
2018-04-11T22:09:29.947Z,1002.04
2018-04-11T22:11:31.401Z,1002.05
2018-04-11T22:13:33.448Z,1002.05
2018-04-11T22:15:35.047Z,1002.04
2018-04-11T22:17:36.667Z,1001.99
2018-04-11T22:19:38.894Z,1001.90
2018-04-11T22:21:40.564Z,1001.91
2018-04-11T22:23:42.041Z,1001.93
2018-04-11T22:25:43.631Z,1001.91
2018-04-11T22:27:45.087Z,1001.87
2018-04-11T22:29:46.511Z,1001.87
2018-04-11T22:31:47.979Z,1001.84
2018-04-11T22:33:49.428Z,1001.81
2018-04-11T22:35:50.877Z,1001.78
2018-04-11T22:37:52.649Z,1001.77
2018-04-11T22:39:54.225Z,1001.78
2018-04-11T22:41:55.874Z,1001.78
2018-04-11T22:43:57.570Z,1001.81
2018-04-11T22:45:59.034Z,1001.81
2018-04-11T22:48:00.545Z,1001.79
2018-04-11T22:50:02.009Z,1001.84
2018-04-11T22:52:04.444Z,1001.84
2018-04-11T22:54:06.674Z,1001.82
2018-04-11T22:56:09.064Z,1001.79
2018-04-11T22:58:10.615Z,1001.77
2018-04-11T23:00:12.190Z,1001.80
2018-04-11T23:02:13.895Z,1001.76
2018-04-11T23:04:15.405Z,1001.76
2018-04-11T23:06:16.873Z,1001.75
2018-04-11T23:08:18.543Z,1001.74
2018-04-11T23:10:20.180Z,1001.74
2018-04-11T23:12:21.641Z,1001.77
2018-04-11T23:14:23.152Z,1001.75
2018-04-11T23:16:24.629Z,1001.71
2018-04-11T23:18:26.036Z,1001.68
2018-04-11T23:20:27.957Z,1001.73
2018-04-11T23:22:29.454Z,1001.72
2018-04-11T23:24:31.080Z,1001.67
2018-04-11T23:26:32.746Z,1001.57
2018-04-11T23:28:35.048Z,1001.60
2018-04-11T23:30:36.488Z,1001.63
2018-04-11T23:32:37.924Z,1001.67
2018-04-11T23:34:39.602Z,1001.67
2018-04-11T23:36:41.211Z,1001.63
2018-04-11T23:38:42.889Z,1001.59
2018-04-11T23:40:45.080Z,1001.59
2018-04-11T23:42:46.522Z,1001.62
2018-04-11T23:44:48.514Z,1001.68
2018-04-11T23:46:50.197Z,1001.71
2018-04-11T23:48:51.677Z,1001.65
2018-04-11T23:50:53.274Z,1001.67
2018-04-11T23:52:54.773Z,1001.52
2018-04-11T23:54:56.242Z,1001.57
2018-04-11T23:56:58.435Z,1001.58
2018-04-11T23:58:59.949Z,1001.71
